Time;durP1;ratioP1;P1;durP2;ratioP2;P2;SDS_P1;SDS_P2;PMS_P1;PMS_P2;Temp;Humidity;BMP_temperature;BMP_pressure;BME280_temperature;BME280_humidity;BME280_pressure;Samples;Min_cycle;Max_cycle;Signal;HPM_P1;HPM_P2
2023/08/10 00:00:16;;;;;;;5.53;2.47;;;14.30;99.90;;;;;;5022538;28;20127;-85
2023/08/10 00:02:42;;;;;;;6.30;2.63;;;14.30;99.90;;;;;;5052113;28;20105;-84
2023/08/10 00:05:09;;;;;;;10.35;2.92;;;14.30;99.90;;;;;;5042337;28;20039;-84
2023/08/10 00:07:36;;;;;;;4.55;2.40;;;14.30;99.90;;;;;;5023513;28;20039;-85
2023/08/10 00:10:03;;;;;;;5.57;2.70;;;14.20;99.90;;;;;;5051367;28;20094;-85
2023/08/10 00:12:29;;;;;;;5.85;2.53;;;14.30;99.90;;;;;;5052076;28;20076;-85
2023/08/10 00:14:55;;;;;;;7.80;2.60;;;14.20;99.90;;;;;;5044880;28;20126;-85
2023/08/10 00:17:20;;;;;;;4.90;2.60;;;14.20;99.90;;;;;;5016846;28;20484;-85
2023/08/10 00:19:46;;;;;;;4.97;2.60;;;14.10;99.90;;;;;;5034767;28;20080;-85
2023/08/10 00:22:13;;;;;;;8.68;2.70;;;14.10;99.90;;;;;;5018117;28;20052;-84
2023/08/10 00:24:38;;;;;;;5.75;2.95;;;14.10;99.90;;;;;;5020587;28;20129;-85
2023/08/10 00:27:06;;;;;;;5.97;2.95;;;14.00;99.90;;;;;;5051073;28;20573;-85
2023/08/10 00:29:32;;;;;;;3.75;2.42;;;14.00;99.90;;;;;;5061848;28;20037;-85
2023/08/10 00:31:58;;;;;;;8.30;2.92;;;14.00;99.90;;;;;;5018393;28;20128;-85
2023/08/10 00:34:24;;;;;;;5.65;2.75;;;14.00;99.90;;;;;;5006178;28;20129;-85
2023/08/10 00:36:49;;;;;;;5.07;2.90;;;14.00;99.90;;;;;;5048418;28;20045;-85
2023/08/10 00:39:17;;;;;;;5.78;2.25;;;14.00;99.90;;;;;;5030573;28;20055;-85
2023/08/10 00:41:43;;;;;;;5.95;2.78;;;14.00;99.90;;;;;;5017999;28;20052;-85
2023/08/10 00:44:09;;;;;;;6.90;3.00;;;13.90;99.90;;;;;;5017331;28;20116;-85
2023/08/10 00:46:35;;;;;;;7.80;2.70;;;13.90;99.90;;;;;;5048943;28;20112;-85
2023/08/10 00:49:01;;;;;;;5.63;2.78;;;13.80;99.90;;;;;;5049825;28;20056;-84
2023/08/10 00:51:27;;;;;;;7.03;2.70;;;13.80;99.90;;;;;;5050784;28;20069;-85
2023/08/10 00:53:53;;;;;;;6.47;3.10;;;13.80;99.90;;;;;;5017773;28;20037;-84
2023/08/10 00:56:20;;;;;;;5.57;2.58;;;13.70;99.90;;;;;;5030670;28;20453;-85
2023/08/10 00:58:46;;;;;;;7.35;2.88;;;13.70;99.90;;;;;;5016064;28;20129;-84
2023/08/10 01:01:12;;;;;;;3.88;2.83;;;13.60;99.90;;;;;;5050757;28;20075;-85
2023/08/10 01:03:38;;;;;;;8.48;2.97;;;13.60;99.90;;;;;;5050594;28;20072;-84
2023/08/10 01:06:16;;;;;;;7.22;3.05;;;13.60;99.90;;;;;;5033577;28;20045;-85
2023/08/10 01:09:07;;;;;;;4.30;2.60;;;13.50;99.90;;;;;;5062847;28;20037;-84
2023/08/10 01:11:39;;;;;;;7.10;3.08;;;13.50;99.90;;;;;;5064385;28;20041;-84
2023/08/10 01:14:17;;;;;;;7.18;3.03;;;13.50;99.90;;;;;;5041091;28;20036;-85
2023/08/10 01:16:44;;;;;;;5.20;2.70;;;13.50;99.90;;;;;;5024089;28;20042;-85
2023/08/10 01:19:20;;;;;;;3.92;2.50;;;13.60;99.90;;;;;;5030435;28;20424;-84
2023/08/10 01:22:03;;;;;;;5.93;3.00;;;13.60;99.90;;;;;;5061828;28;20470;-85
2023/08/10 01:24:38;;;;;;;5.15;2.75;;;13.60;99.90;;;;;;5046232;28;20041;-85
2023/08/10 01:27:04;;;;;;;4.03;2.60;;;13.60;99.90;;;;;;5051571;28;20049;-85
2023/08/10 01:29:30;;;;;;;5.70;2.80;;;13.60;99.90;;;;;;5043492;28;20539;-85
2023/08/10 01:31:56;;;;;;;5.22;2.60;;;13.60;99.90;;;;;;5026769;28;20045;-85
2023/08/10 01:34:22;;;;;;;6.97;2.90;;;13.60;99.90;;;;;;5050344;28;20049;-85
2023/08/10 01:36:47;;;;;;;5.53;2.47;;;13.70;99.90;;;;;;5051014;28;20403;-85
2023/08/10 01:39:13;;;;;;;5.53;3.10;;;13.70;99.90;;;;;;5048691;28;20040;-85
2023/08/10 01:41:39;;;;;;;8.07;2.88;;;13.70;99.90;;;;;;5052609;28;20433;-85
2023/08/10 01:44:05;;;;;;;6.07;2.85;;;13.70;99.90;;;;;;5035404;28;20037;-85
2023/08/10 01:46:36;;;;;;;5.80;3.20;;;13.70;99.90;;;;;;5033725;28;20045;-85
2023/08/10 01:49:05;;;;;;;6.97;3.05;;;13.80;99.90;;;;;;5038736;28;20045;-85
2023/08/10 01:51:32;;;;;;;6.97;2.95;;;13.70;99.90;;;;;;5036789;28;20704;-85
2023/08/10 01:54:03;;;;;;;6.47;3.20;;;13.70;99.90;;;;;;5037103;28;20115;-85
2023/08/10 01:56:29;;;;;;;4.40;2.45;;;13.80;99.90;;;;;;5047687;28;20044;-85
2023/08/10 01:58:55;;;;;;;6.32;3.25;;;13.80;99.90;;;;;;5016626;28;20049;-85
2023/08/10 02:01:21;;;;;;;5.45;2.88;;;13.80;99.90;;;;;;5033322;28;20051;-85
2023/08/10 02:03:47;;;;;;;4.40;3.10;;;13.80;99.90;;;;;;5017851;28;20053;-85
2023/08/10 02:06:12;;;;;;;6.90;3.08;;;13.80;99.90;;;;;;5034330;28;20392;-85
2023/08/10 02:08:38;;;;;;;5.65;2.92;;;13.80;99.90;;;;;;5036338;28;20029;-85
2023/08/10 02:11:04;;;;;;;4.75;2.70;;;13.80;99.90;;;;;;5024435;28;20125;-85
2023/08/10 02:13:29;;;;;;;4.95;2.92;;;13.80;99.90;;;;;;5028794;28;20119;-85
2023/08/10 02:15:55;;;;;;;4.57;3.00;;;13.80;99.90;;;;;;5034950;28;20064;-85
2023/08/10 02:18:21;;;;;;;5.05;3.17;;;13.70;99.90;;;;;;5046860;28;20123;-85
2023/08/10 02:20:47;;;;;;;6.85;3.28;;;13.80;99.90;;;;;;5033142;28;20798;-85
2023/08/10 02:23:12;;;;;;;7.80;3.50;;;13.80;99.90;;;;;;5018524;28;20048;-85
2023/08/10 02:25:38;;;;;;;6.10;3.00;;;13.70;99.90;;;;;;5037015;28;20068;-86
2023/08/10 02:28:04;;;;;;;8.32;3.50;;;13.70;99.90;;;;;;5053609;28;20041;-85
2023/08/10 02:30:30;;;;;;;5.88;2.90;;;13.70;99.90;;;;;;5073972;28;20495;-85
2023/08/10 02:32:56;;;;;;;4.57;2.80;;;13.70;99.90;;;;;;5027020;28;20085;-85
2023/08/10 02:35:22;;;;;;;8.95;3.10;;;13.70;99.90;;;;;;5063363;28;20090;-85
2023/08/10 02:37:48;;;;;;;4.93;2.88;;;13.70;99.90;;;;;;5019955;28;20051;-85
2023/08/10 02:40:14;;;;;;;4.32;2.83;;;13.60;99.90;;;;;;5000423;28;20148;-85
2023/08/10 02:42:42;;;;;;;6.35;3.33;;;13.60;99.90;;;;;;5052607;28;20045;-85
2023/08/10 02:45:08;;;;;;;4.00;2.80;;;13.60;99.90;;;;;;5053234;28;20053;-85
2023/08/10 02:47:34;;;;;;;6.50;3.03;;;13.60;99.90;;;;;;5035589;28;20091;-85
2023/08/10 02:50:01;;;;;;;5.93;3.10;;;13.50;99.90;;;;;;5052508;28;20055;-85
2023/08/10 02:52:27;;;;;;;5.03;3.03;;;13.50;99.90;;;;;;5017828;28;20036;-85
2023/08/10 02:54:53;;;;;;;6.15;3.08;;;13.40;99.90;;;;;;5044201;28;20094;-85
2023/08/10 02:57:18;;;;;;;4.53;2.90;;;13.40;99.90;;;;;;5036413;28;20405;-85
2023/08/10 02:59:44;;;;;;;5.72;3.25;;;13.40;99.90;;;;;;5036021;28;20037;-86
2023/08/10 03:02:10;;;;;;;6.18;3.08;;;13.30;99.90;;;;;;5036416;28;20037;-86
2023/08/10 03:04:36;;;;;;;5.88;2.97;;;13.30;99.90;;;;;;5052396;28;20408;-85
2023/08/10 03:07:01;;;;;;;4.03;3.05;;;13.30;99.90;;;;;;5036364;28;20047;-85
2023/08/10 03:09:27;;;;;;;4.85;3.00;;;13.30;99.90;;;;;;5052733;28;20049;-86
2023/08/10 03:11:53;;;;;;;6.00;2.67;;;13.30;99.90;;;;;;5019812;28;20089;-86
2023/08/10 03:14:19;;;;;;;6.15;3.03;;;13.20;99.90;;;;;;5024308;28;20041;-85
2023/08/10 03:16:44;;;;;;;5.90;2.83;;;13.20;99.90;;;;;;5036322;28;20401;-85
2023/08/10 03:19:10;;;;;;;4.82;3.13;;;13.20;99.90;;;;;;5019390;28;20072;-85
2023/08/10 03:21:36;;;;;;;5.70;3.33;;;13.20;99.90;;;;;;5010007;28;20051;-85
2023/08/10 03:24:02;;;;;;;4.05;2.58;;;13.20;99.90;;;;;;5047868;28;20436;-85
2023/08/10 03:26:27;;;;;;;4.65;2.85;;;13.30;99.90;;;;;;5024601;28;20037;-85
2023/08/10 03:28:53;;;;;;;6.10;3.08;;;13.30;99.90;;;;;;5056786;28;20128;-85
2023/08/10 03:31:23;;;;;;;5.82;3.28;;;13.30;99.90;;;;;;5022555;28;20036;-85
2023/08/10 03:33:49;;;;;;;4.07;2.90;;;13.30;99.90;;;;;;5035346;28;20037;-85
2023/08/10 03:36:15;;;;;;;4.35;2.85;;;13.30;99.90;;;;;;5024851;28;20059;-85
2023/08/10 03:38:41;;;;;;;3.67;3.13;;;13.30;99.90;;;;;;5061468;28;20601;-85
2023/08/10 03:41:06;;;;;;;5.40;3.38;;;13.30;99.90;;;;;;5019293;28;20037;-85
2023/08/10 03:43:32;;;;;;;6.00;3.22;;;13.30;99.90;;;;;;5026637;28;20055;-85
2023/08/10 03:45:58;;;;;;;4.70;3.13;;;13.30;99.90;;;;;;5052892;28;20105;-86
2023/08/10 03:48:24;;;;;;;5.40;2.72;;;13.30;99.90;;;;;;5034485;28;20060;-85
2023/08/10 03:50:50;;;;;;;6.13;3.20;;;13.30;99.90;;;;;;5041123;28;20046;-86
2023/08/10 03:53:15;;;;;;;6.75;3.30;;;13.30;99.90;;;;;;5035203;28;20037;-86
2023/08/10 03:55:41;;;;;;;4.97;2.50;;;13.30;99.90;;;;;;5051597;28;20403;-86
2023/08/10 03:58:07;;;;;;;6.05;3.17;;;13.30;99.90;;;;;;5052356;28;20102;-85
2023/08/10 04:00:32;;;;;;;8.40;3.05;;;13.30;99.90;;;;;;5056901;28;20045;-85
2023/08/10 04:02:58;;;;;;;4.88;3.00;;;13.30;99.90;;;;;;5021913;28;20056;-86
2023/08/10 04:05:24;;;;;;;5.60;3.50;;;13.30;99.90;;;;;;5051250;28;20041;-86
2023/08/10 04:07:51;;;;;;;5.68;3.35;;;13.30;99.90;;;;;;5038019;28;20502;-86
2023/08/10 04:10:16;;;;;;;4.55;2.85;;;13.30;99.90;;;;;;5051299;28;20116;-85
2023/08/10 04:12:42;;;;;;;9.02;3.53;;;13.30;99.90;;;;;;5039737;28;20202;-85
2023/08/10 04:15:08;;;;;;;5.88;3.65;;;13.30;99.90;;;;;;5045590;28;20488;-85
2023/08/10 04:17:34;;;;;;;5.50;3.17;;;13.30;99.90;;;;;;5018655;28;20400;-86
2023/08/10 04:20:00;;;;;;;8.10;3.00;;;13.20;99.90;;;;;;5038881;28;20114;-86
2023/08/10 04:22:26;;;;;;;4.40;2.90;;;13.30;99.90;;;;;;5034471;28;20040;-86
2023/08/10 04:24:52;;;;;;;4.43;2.85;;;13.30;99.90;;;;;;5030332;28;20032;-85
2023/08/10 04:27:18;;;;;;;5.03;3.22;;;13.30;99.90;;;;;;5037955;28;20044;-85
2023/08/10 04:29:44;;;;;;;5.38;2.80;;;13.30;99.90;;;;;;5034170;28;20120;-85
2023/08/10 04:32:11;;;;;;;5.15;3.20;;;13.30;99.90;;;;;;5002306;28;20543;-85
2023/08/10 04:34:37;;;;;;;5.00;2.90;;;13.30;99.90;;;;;;5032279;28;20072;-85
2023/08/10 04:37:03;;;;;;;4.70;2.95;;;13.30;99.90;;;;;;5019162;28;20076;-86
2023/08/10 04:39:29;;;;;;;6.28;3.00;;;13.30;99.90;;;;;;5017935;28;20044;-86
2023/08/10 04:41:55;;;;;;;4.93;3.40;;;13.30;99.90;;;;;;5014829;28;20041;-86
2023/08/10 04:44:20;;;;;;;5.22;3.00;;;13.40;99.90;;;;;;5028132;28;20037;-85
2023/08/10 04:46:46;;;;;;;6.20;3.33;;;13.40;99.90;;;;;;5016366;28;20042;-85
2023/08/10 04:49:12;;;;;;;6.15;3.13;;;13.40;99.90;;;;;;5014421;28;20045;-85
2023/08/10 04:51:38;;;;;;;7.53;3.10;;;13.40;99.90;;;;;;5030681;28;20111;-85
2023/08/10 04:54:04;;;;;;;5.00;3.17;;;13.40;99.90;;;;;;5014467;28;20175;-85
2023/08/10 04:56:29;;;;;;;6.03;3.15;;;13.40;99.90;;;;;;5034144;28;20699;-85
2023/08/10 04:58:55;;;;;;;5.72;3.33;;;13.40;99.90;;;;;;5050628;28;20045;-85
2023/08/10 05:01:21;;;;;;;6.68;3.40;;;13.40;99.90;;;;;;5031525;28;20063;-85
2023/08/10 05:03:46;;;;;;;4.45;3.17;;;13.50;99.90;;;;;;5033710;28;20114;-85
2023/08/10 05:06:12;;;;;;;7.07;3.88;;;13.50;99.90;;;;;;5014227;28;20041;-85
2023/08/10 05:08:38;;;;;;;7.55;3.30;;;13.60;99.90;;;;;;5001886;28;20037;-86
2023/08/10 05:11:04;;;;;;;7.13;3.50;;;13.60;99.90;;;;;;5034287;28;20507;-84
2023/08/10 05:13:30;;;;;;;4.88;3.30;;;13.60;99.90;;;;;;5050286;28;20088;-85
2023/08/10 05:15:55;;;;;;;5.00;3.33;;;13.70;99.90;;;;;;5034239;28;20124;-85
2023/08/10 05:18:22;;;;;;;5.82;3.53;;;13.70;99.90;;;;;;5037488;28;20029;-85
2023/08/10 05:20:49;;;;;;;7.28;3.58;;;13.70;99.90;;;;;;5042651;28;20051;-85
2023/08/10 05:23:15;;;;;;;8.48;3.78;;;13.80;99.90;;;;;;5050376;28;20044;-85
2023/08/10 05:25:41;;;;;;;6.38;3.65;;;13.80;99.90;;;;;;5050168;28;20427;-85
2023/08/10 05:28:07;;;;;;;7.15;3.63;;;13.80;99.90;;;;;;5035380;28;20046;-85
2023/08/10 05:30:33;;;;;;;8.57;3.90;;;13.90;99.90;;;;;;5034617;28;20041;-84
2023/08/10 05:32:59;;;;;;;8.57;4.38;;;13.90;99.90;;;;;;5038216;28;20075;-85
2023/08/10 05:35:25;;;;;;;6.72;3.85;;;14.00;99.90;;;;;;5033405;28;20033;-85
2023/08/10 05:37:51;;;;;;;8.25;4.20;;;14.00;99.90;;;;;;5047121;28;20039;-85
2023/08/10 05:40:17;;;;;;;6.05;3.55;;;14.00;99.90;;;;;;5056514;28;20124;-85
2023/08/10 05:42:43;;;;;;;4.75;3.63;;;14.00;99.90;;;;;;5037318;28;20543;-85
2023/08/10 05:45:14;;;;;;;6.13;3.90;;;14.20;99.90;;;;;;5017050;28;20136;-85
2023/08/10 05:47:40;;;;;;;9.25;4.15;;;14.20;99.90;;;;;;5033303;28;20452;-85
2023/08/10 05:50:07;;;;;;;10.40;4.43;;;14.20;99.90;;;;;;5017197;28;20036;-85
2023/08/10 05:52:32;;;;;;;8.80;4.43;;;14.30;99.90;;;;;;5025032;28;20131;-87
2023/08/10 05:54:58;;;;;;;10.02;4.22;;;14.30;99.90;;;;;;5021301;28;20049;-85
2023/08/10 05:57:24;;;;;;;6.40;4.45;;;14.30;99.90;;;;;;5006307;28;20045;-86
2023/08/10 05:59:49;;;;;;;7.20;4.63;;;14.40;99.90;;;;;;5056756;28;20064;-84
2023/08/10 06:02:15;;;;;;;7.03;4.50;;;14.40;99.90;;;;;;5054212;28;20542;-85
2023/08/10 06:04:41;;;;;;;7.85;4.28;;;14.50;99.90;;;;;;5033998;28;20092;-85
2023/08/10 06:07:08;;;;;;;6.25;4.25;;;14.50;99.90;;;;;;5036846;28;20033;-85
2023/08/10 06:09:33;;;;;;;5.85;3.90;;;14.60;99.90;;;;;;5048324;28;20040;-85
2023/08/10 06:12:00;;;;;;;7.60;3.90;;;14.60;99.90;;;;;;5055930;28;20634;-85
2023/08/10 06:14:26;;;;;;;6.88;4.80;;;14.70;99.90;;;;;;5053530;28;20057;-85
2023/08/10 06:16:52;;;;;;;7.38;4.15;;;14.70;99.90;;;;;;5001267;28;20123;-85
2023/08/10 06:19:18;;;;;;;8.90;4.53;;;14.80;99.90;;;;;;5053691;28;20088;-85
2023/08/10 06:21:44;;;;;;;6.93;4.03;;;14.80;99.90;;;;;;5066831;28;20040;-85
2023/08/10 06:24:09;;;;;;;8.35;4.70;;;14.80;99.90;;;;;;5052262;28;20044;-84
2023/08/10 06:26:39;;;;;;;7.80;4.30;;;14.90;99.90;;;;;;5061970;28;20418;-85
2023/08/10 06:29:04;;;;;;;6.82;3.95;;;15.00;99.90;;;;;;5045637;28;20072;-84
2023/08/10 06:31:30;;;;;;;7.53;3.95;;;15.00;99.90;;;;;;5059137;28;20072;-85
2023/08/10 06:33:56;;;;;;;9.23;5.10;;;15.10;99.90;;;;;;5043153;28;20041;-85
2023/08/10 06:36:22;;;;;;;8.30;3.80;;;15.20;99.90;;;;;;5023669;28;20106;-85
2023/08/10 06:38:49;;;;;;;6.13;4.28;;;15.20;99.90;;;;;;5058696;28;20055;-85
2023/08/10 06:41:15;;;;;;;8.00;3.90;;;15.30;99.90;;;;;;5041079;28;20063;-85
2023/08/10 06:43:41;;;;;;;6.13;3.90;;;15.40;99.90;;;;;;5025049;28;20476;-85
2023/08/10 06:46:07;;;;;;;6.53;3.70;;;15.50;99.90;;;;;;5031850;28;20028;-86
2023/08/10 06:48:32;;;;;;;7.28;3.50;;;15.60;99.90;;;;;;5045837;28;20438;-84
2023/08/10 06:50:58;;;;;;;5.90;3.80;;;15.60;99.90;;;;;;5036362;28;20083;-85
2023/08/10 06:53:24;;;;;;;7.20;3.97;;;15.70;99.90;;;;;;5024746;28;20037;-86
2023/08/10 06:55:52;;;;;;;4.78;3.60;;;15.80;99.90;;;;;;5030312;28;20063;-85
2023/08/10 06:58:18;;;;;;;8.88;3.85;;;16.00;99.90;;;;;;5013777;28;20094;-85
2023/08/10 07:00:44;;;;;;;7.32;2.92;;;16.00;99.90;;;;;;5065538;28;20049;-85
2023/08/10 07:03:10;;;;;;;8.77;2.83;;;16.10;99.90;;;;;;5063865;28;20052;-86
2023/08/10 07:05:38;;;;;;;7.00;2.80;;;16.20;99.90;;;;;;5050380;28;20041;-85
2023/08/10 07:08:04;;;;;;;4.05;2.17;;;16.30;99.90;;;;;;5012172;28;20454;-85
2023/08/10 07:10:30;;;;;;;5.75;2.30;;;16.40;99.90;;;;;;5030354;28;20411;-85
2023/08/10 07:12:55;;;;;;;5.13;1.90;;;16.50;99.90;;;;;;5038432;28;20047;-84
2023/08/10 07:15:21;;;;;;;5.05;2.10;;;16.60;99.90;;;;;;5037182;28;20037;-85
2023/08/10 07:17:47;;;;;;;5.25;2.30;;;16.70;99.90;;;;;;5021220;28;20041;-85
2023/08/10 07:20:13;;;;;;;5.82;2.55;;;16.70;99.90;;;;;;5062444;28;20440;-85
2023/08/10 07:22:39;;;;;;;5.05;1.95;;;16.80;99.90;;;;;;5060781;28;20040;-85
2023/08/10 07:25:08;;;;;;;8.77;2.50;;;16.80;99.90;;;;;;5039471;28;20075;-85
2023/08/10 07:27:34;;;;;;;3.85;1.88;;;17.00;99.90;;;;;;5038040;28;20037;-85
2023/08/10 07:30:03;;;;;;;5.03;2.05;;;17.00;99.90;;;;;;5052618;28;20190;-85
2023/08/10 07:32:29;;;;;;;4.55;2.00;;;17.10;99.90;;;;;;5039024;28;20174;-85
2023/08/10 07:34:54;;;;;;;5.20;1.95;;;17.20;99.90;;;;;;5036056;28;20123;-85
2023/08/10 07:37:20;;;;;;;3.80;1.80;;;17.30;99.90;;;;;;5024784;28;20033;-85
2023/08/10 07:39:47;;;;;;;5.47;1.77;;;17.30;99.90;;;;;;5025215;28;20499;-85
2023/08/10 07:42:13;;;;;;;5.72;1.90;;;17.40;99.90;;;;;;5027432;28;20048;-85
2023/08/10 07:44:39;;;;;;;6.57;1.85;;;17.50;99.90;;;;;;5023634;28;20444;-84
2023/08/10 07:47:04;;;;;;;5.82;1.77;;;17.60;99.90;;;;;;5012837;28;20044;-85
2023/08/10 07:49:31;;;;;;;2.85;1.75;;;17.60;99.90;;;;;;5029296;28;20511;-84
2023/08/10 07:51:58;;;;;;;5.20;1.73;;;17.50;99.90;;;;;;5030471;28;20492;-85
2023/08/10 07:54:24;;;;;;;2.95;1.60;;;17.50;99.90;;;;;;5029022;28;20056;-84
2023/08/10 07:56:51;;;;;;;3.97;1.48;;;17.60;99.90;;;;;;5040479;28;20429;-85
2023/08/10 07:59:17;;;;;;;3.72;1.60;;;17.80;99.90;;;;;;5028003;28;20048;-85
2023/08/10 08:01:43;;;;;;;7.30;1.67;;;17.90;99.90;;;;;;5041988;28;20048;-85
2023/08/10 08:04:09;;;;;;;3.65;1.60;;;18.10;99.90;;;;;;5027246;28;20051;-84
2023/08/10 08:06:36;;;;;;;2.78;1.30;;;18.10;99.90;;;;;;5030334;28;20041;-84
2023/08/10 08:09:04;;;;;;;5.32;1.55;;;18.10;99.90;;;;;;5028931;28;20043;-84
2023/08/10 08:11:30;;;;;;;3.00;1.60;;;18.20;99.90;;;;;;5043044;28;20037;-84
2023/08/10 08:13:56;;;;;;;6.85;2.33;;;18.30;99.90;;;;;;5025138;28;20041;-84
2023/08/10 08:16:22;;;;;;;2.22;1.33;;;18.40;99.90;;;;;;5028007;28;20412;-84
2023/08/10 08:18:49;;;;;;;5.22;1.60;;;18.30;99.90;;;;;;5046072;28;20084;-84
2023/08/10 08:21:17;;;;;;;4.72;1.40;;;18.30;99.90;;;;;;5042351;28;20045;-83
2023/08/10 08:23:45;;;;;;;5.55;1.75;;;18.30;99.90;;;;;;5027552;28;20435;-84
2023/08/10 08:26:14;;;;;;;4.40;1.38;;;18.30;99.90;;;;;;5043125;28;20037;-84
2023/08/10 08:28:40;;;;;;;2.60;1.17;;;18.20;99.90;;;;;;5044630;28;20465;-84
2023/08/10 08:31:06;;;;;;;3.35;1.25;;;18.10;99.90;;;;;;5041267;28;20592;-83
2023/08/10 08:33:33;;;;;;;3.72;1.55;;;18.10;99.90;;;;;;5042264;28;20448;-84
2023/08/10 08:35:59;;;;;;;4.65;1.70;;;18.10;99.90;;;;;;5028538;28;20072;-84
2023/08/10 08:38:26;;;;;;;3.25;1.30;;;18.00;99.90;;;;;;5046217;28;20041;-84
2023/08/10 08:40:54;;;;;;;6.05;1.60;;;18.00;99.90;;;;;;5041828;28;20116;-84
2023/08/10 08:43:20;;;;;;;2.72;1.40;;;18.00;99.90;;;;;;5026297;28;20563;-84
2023/08/10 08:45:46;;;;;;;4.82;1.90;;;18.00;99.90;;;;;;5013043;28;20045;-84
2023/08/10 08:48:16;;;;;;;2.42;1.33;;;18.00;99.90;;;;;;5025551;28;20520;-85
2023/08/10 08:50:44;;;;;;;3.33;1.50;;;17.90;99.90;;;;;;5043364;28;20041;-86
2023/08/10 08:53:10;;;;;;;5.05;1.63;;;18.00;99.90;;;;;;5029435;28;20075;-84
2023/08/10 08:55:38;;;;;;;3.05;1.33;;;17.90;99.90;;;;;;5044985;28;20051;-84
2023/08/10 08:58:04;;;;;;;3.65;1.30;;;18.00;99.90;;;;;;5042654;28;20040;-84
2023/08/10 09:00:34;;;;;;;2.05;1.40;;;18.00;99.90;;;;;;5029408;28;20052;-84
2023/08/10 09:03:00;;;;;;;4.78;1.38;;;17.90;99.90;;;;;;5028615;28;20041;-84
2023/08/10 09:05:27;;;;;;;8.93;1.70;;;18.00;99.90;;;;;;5037789;28;20063;-84
2023/08/10 09:07:53;;;;;;;3.15;1.40;;;18.00;99.90;;;;;;5042948;28;20488;-85
2023/08/10 09:10:20;;;;;;;3.25;1.50;;;18.00;99.90;;;;;;5027138;28;20067;-84
2023/08/10 09:12:47;;;;;;;4.38;1.52;;;18.10;99.90;;;;;;5042885;28;20396;-84
2023/08/10 09:15:18;;;;;;;6.13;1.70;;;18.20;99.90;;;;;;5041650;28;20427;-84
2023/08/10 09:17:49;;;;;;;3.30;1.50;;;18.20;99.90;;;;;;5023265;28;20041;-84
2023/08/10 09:20:22;;;;;;;3.58;1.52;;;18.20;99.90;;;;;;5023805;28;20045;-85
2023/08/10 09:22:52;;;;;;;5.72;1.33;;;18.20;99.90;;;;;;5046248;28;20044;-85
2023/08/10 09:25:18;;;;;;;3.33;1.45;;;18.30;99.90;;;;;;5032880;28;20032;-84
2023/08/10 09:27:47;;;;;;;4.22;1.67;;;18.20;99.90;;;;;;5028435;28;20545;-84
2023/08/10 09:30:12;;;;;;;3.88;1.45;;;18.20;99.90;;;;;;5047622;28;20079;-84
2023/08/10 09:32:39;;;;;;;3.00;1.35;;;18.20;99.90;;;;;;5047423;28;20515;-83
2023/08/10 09:35:11;;;;;;;4.35;1.83;;;18.20;99.90;;;;;;5062902;28;20396;-84
2023/08/10 09:37:37;;;;;;;4.68;1.45;;;18.20;99.90;;;;;;5025560;28;20040;-84
2023/08/10 09:40:10;;;;;;;5.28;1.42;;;18.20;99.90;;;;;;5018099;28;20040;-84
2023/08/10 09:42:37;;;;;;;3.15;1.63;;;18.20;99.90;;;;;;5037302;28;20045;-84
2023/08/10 09:45:08;;;;;;;3.70;1.55;;;18.20;99.90;;;;;;5021603;28;20045;-84
2023/08/10 09:47:36;;;;;;;2.90;1.70;;;18.20;99.90;;;;;;5060237;28;20099;-85
2023/08/10 09:50:05;;;;;;;3.78;1.60;;;18.20;99.90;;;;;;5034746;28;20041;-85
2023/08/10 09:52:33;;;;;;;4.63;1.60;;;18.20;99.90;;;;;;5047833;28;20049;-83
2023/08/10 09:54:59;;;;;;;2.58;1.60;;;18.20;99.90;;;;;;5032912;28;20048;-84
2023/08/10 09:57:27;;;;;;;3.53;1.38;;;18.20;99.90;;;;;;5069276;28;20040;-85
2023/08/10 09:59:54;;;;;;;2.53;1.40;;;18.30;99.90;;;;;;5035130;28;20083;-84
2023/08/10 10:02:20;;;;;;;2.33;1.35;;;18.20;99.90;;;;;;5041481;28;20045;-85
2023/08/10 10:04:47;;;;;;;2.85;1.42;;;18.20;99.90;;;;;;5013122;28;20052;-84
2023/08/10 10:07:14;;;;;;;5.00;1.92;;;18.20;99.90;;;;;;5048333;28;20047;-84
2023/08/10 10:09:43;;;;;;;4.05;1.30;;;18.20;99.90;;;;;;5033257;28;20469;-83
2023/08/10 10:12:15;;;;;;;2.25;1.40;;;18.20;99.90;;;;;;5034419;28;20037;-84
2023/08/10 10:14:46;;;;;;;3.65;1.40;;;18.20;99.90;;;;;;5042171;28;20621;-85
2023/08/10 10:17:13;;;;;;;;;;;18.20;99.90;;;;;;5050294;28;20041;-84
2023/08/10 10:19:40;;;;;;;2.30;1.50;;;18.20;99.90;;;;;;5048213;28;20431;-85
2023/08/10 10:22:06;;;;;;;3.17;1.63;;;18.30;99.90;;;;;;5039066;28;20183;-84
2023/08/10 10:24:33;;;;;;;3.72;1.48;;;18.30;99.90;;;;;;5033795;28;20051;-83
2023/08/10 10:27:09;;;;;;;4.88;1.58;;;18.40;99.90;;;;;;5026811;28;20116;-85
2023/08/10 10:29:58;;;;;;;3.65;1.33;;;18.30;99.90;;;;;;5048607;28;20051;-85
2023/08/10 10:32:24;;;;;;;3.50;1.50;;;18.30;99.90;;;;;;5045518;28;20051;-86
2023/08/10 10:34:52;;;;;;;2.88;1.70;;;18.30;99.90;;;;;;5051164;28;20048;-85
2023/08/10 10:37:20;;;;;;;4.13;2.10;;;18.40;99.90;;;;;;5066857;28;20399;-85
2023/08/10 10:39:49;;;;;;;2.78;1.30;;;18.40;99.90;;;;;;5050559;28;20040;-84
2023/08/10 10:42:19;;;;;;;3.63;1.48;;;18.40;99.90;;;;;;5061272;28;21593;-86
2023/08/10 10:45:04;;;;;;;2.63;1.95;;;18.40;99.90;;;;;;5039103;28;20072;-86
2023/08/10 10:47:41;;;;;;;3.08;1.60;;;18.40;99.90;;;;;;5053202;28;20037;-85
2023/08/10 10:50:17;;;;;;;4.20;1.60;;;18.40;99.90;;;;;;5068411;28;20061;-84
2023/08/10 10:52:57;;;;;;;7.97;3.50;;;18.40;99.90;;;;;;5036607;28;20076;-85
2023/08/10 10:55:39;;;;;;;7.82;4.10;;;18.50;99.90;;;;;;5053200;28;20500;-85
2023/08/10 10:58:06;;;;;;;3.40;1.30;;;18.40;99.90;;;;;;5019603;28;20041;-85
2023/08/10 11:00:34;;;;;;;6.72;4.13;;;18.40;99.90;;;;;;5050136;28;20037;-84
2023/08/10 11:03:02;;;;;;;2.95;1.60;;;18.40;99.90;;;;;;5047256;28;20040;-85
2023/08/10 11:05:28;;;;;;;4.63;2.70;;;18.40;99.90;;;;;;5044818;28;20106;-83
2023/08/10 11:07:55;;;;;;;3.88;2.05;;;18.40;99.90;;;;;;5019862;28;20562;-84
2023/08/10 11:10:24;;;;;;;3.33;1.30;;;18.40;99.90;;;;;;5022228;28;20039;-84
2023/08/10 11:12:51;;;;;;;4.30;1.70;;;18.40;99.90;;;;;;5052985;28;20093;-84
2023/08/10 11:15:17;;;;;;;3.22;1.77;;;18.40;99.90;;;;;;5048681;28;20051;-85
2023/08/10 11:17:48;;;;;;;3.90;1.67;;;18.40;99.90;;;;;;5051876;28;20387;-85
2023/08/10 11:20:15;;;;;;;5.15;2.17;;;18.40;99.90;;;;;;5060140;28;20200;-85
2023/08/10 11:22:51;;;;;;;4.60;2.00;;;18.40;99.90;;;;;;5048226;28;20434;-84
2023/08/10 11:25:24;;;;;;;3.03;2.03;;;18.50;99.90;;;;;;5015259;28;20049;-84
2023/08/10 11:27:52;;;;;;;4.90;1.95;;;18.50;99.90;;;;;;5040544;28;20064;-84
2023/08/10 11:30:22;;;;;;;5.72;2.08;;;18.50;99.90;;;;;;5040821;28;20039;-84
2023/08/10 11:32:52;;;;;;;3.10;2.00;;;18.50;99.90;;;;;;5062313;28;20500;-85
2023/08/10 11:35:20;;;;;;;4.07;1.70;;;18.50;99.90;;;;;;5060420;28;20041;-85
2023/08/10 11:37:47;;;;;;;2.38;1.48;;;18.60;99.90;;;;;;5051100;28;20047;-84
2023/08/10 11:40:15;;;;;;;3.90;1.83;;;18.60;99.90;;;;;;5045808;28;20143;-84
2023/08/10 11:42:49;;;;;;;4.22;2.08;;;18.60;99.90;;;;;;5043408;28;20048;-85
2023/08/10 11:45:20;;;;;;;3.35;2.00;;;18.60;99.90;;;;;;5034823;28;20059;-84
2023/08/10 11:47:53;;;;;;;4.93;2.20;;;18.60;99.90;;;;;;5042169;28;20053;-84
2023/08/10 11:50:21;;;;;;;5.93;2.30;;;18.70;99.90;;;;;;5028902;28;20068;-85
2023/08/10 11:52:49;;;;;;;5.45;2.30;;;18.60;99.90;;;;;;5032078;28;20053;-84
2023/08/10 11:55:16;;;;;;;5.43;2.30;;;18.60;99.90;;;;;;5038001;28;20376;-84
2023/08/10 11:57:48;;;;;;;5.97;2.65;;;18.60;99.90;;;;;;5037026;28;20522;-83
2023/08/10 12:00:23;;;;;;;;;;;18.60;99.90;;;;;;5052346;28;20041;-84
2023/08/10 12:03:11;;;;;;;6.68;2.45;;;18.60;99.90;;;;;;5037284;28;19920;-83
2023/08/10 12:05:37;;;;;;;4.60;2.65;;;18.60;99.90;;;;;;5051844;28;20049;-84
2023/08/10 12:08:06;;;;;;;4.55;2.70;;;18.60;99.90;;;;;;5044278;28;20047;-83
2023/08/10 12:10:36;;;;;;;4.57;2.28;;;18.60;99.90;;;;;;5028261;28;20041;-84
2023/08/10 12:13:03;;;;;;;5.15;2.40;;;18.70;99.90;;;;;;5062321;28;20037;-84
2023/08/10 12:15:31;;;;;;;7.38;2.47;;;18.60;99.90;;;;;;5043212;28;20415;-83
2023/08/10 12:17:57;;;;;;;4.00;2.50;;;18.70;99.90;;;;;;5061396;28;20037;-84
2023/08/10 12:20:22;;;;;;;6.88;2.80;;;18.60;99.90;;;;;;5041457;28;20392;-83
2023/08/10 12:22:48;;;;;;;5.53;3.40;;;18.50;99.90;;;;;;5038692;28;20072;-83
2023/08/10 12:25:14;;;;;;;5.88;2.80;;;18.50;99.90;;;;;;5059082;28;20048;-83
2023/08/10 12:27:40;;;;;;;6.65;3.03;;;18.50;99.90;;;;;;5044880;28;20392;-83
2023/08/10 12:30:08;;;;;;;7.85;3.35;;;18.40;99.90;;;;;;5064918;28;20036;-84
2023/08/10 12:32:34;;;;;;;7.07;2.97;;;18.40;99.90;;;;;;5039926;28;20045;-84
2023/08/10 12:34:59;;;;;;;14.00;3.67;;;18.40;99.90;;;;;;5066925;28;20503;-84
2023/08/10 12:37:25;;;;;;;5.80;3.28;;;18.40;99.90;;;;;;5023137;28;20618;-84
2023/08/10 12:39:51;;;;;;;8.73;4.55;;;18.50;99.90;;;;;;5036845;28;20052;-84
2023/08/10 12:42:16;;;;;;;8.23;4.13;;;18.50;99.90;;;;;;5007645;28;20040;-84
2023/08/10 12:44:42;;;;;;;9.18;4.45;;;18.50;99.90;;;;;;5034712;28;20128;-84
2023/08/10 12:47:08;;;;;;;8.50;3.83;;;18.50;99.90;;;;;;5031269;28;20374;-84